Terminal Aerodrome Forecast
Issued by NWS Twin Cities, MN

Home | Current Version | Previous Version | Graphics & Text | Print | Product List | Glossary On
Versions: 1 2 3 4 5 6 7 8 9 10 11 12 13 14 15 16 17 18 19 20
000
FTUS43 KMPX 280520
TAFEAU
TAF
KEAU 280520Z 2806/2906 17007KT P6SM BKN250
     FM281200 14008KT P6SM -SHRA BKN060
     FM281400 11008KT 5SM -RA BR SCT015 BKN040
     FM281800 12010KT 6SM -SHRA BKN015
     FM282100 10007KT P6SM BKN025
     FM290200 08006KT P6SM BKN070=

USA.gov is the U.S. government's official web portal to all federal, state and local government web resources and services.